Sevier River / Vermillion Canal




Date Battery Voltage (V) Canal Stage above Flume (ft) Canal Stage below Flume (ft) Canal Flow (cfs) Canal Gate Height (%) River Stage at Dam (ft) River Flow at Dam (cfs) Pond Stage at Gate (ft)
04/01/2017 13.02 1.08 1.65 36.2 0.71 88 0.71
04/02/2017 13.05 1.08 1.37 36.2 0.70 88 0.70
04/03/2017 13.05 1.08 1.29 36.2 0.67 81 0.67
04/04/2017 13.02 1.08 1.31 36.2 0.65 78 0.65
04/05/2017 13.01 1.09 1.30 36.8 0.60 69 0.60
04/06/2017 13.02 1.10 1.31 37.2 0.57 64 0.57
04/07/2017 13.05 1.10 1.36 37.2 0.56 62 0.56
04/08/2017 13.04 1.09 1.34 36.9 0.60 68 0.60
04/09/2017 13.06 1.09 1.34 36.7 0.61 71 0.61
04/10/2017 13.03 1.09 1.35 36.7 0.63 74 0.63
04/11/2017 13.05 1.09 1.40 36.7 0.60 69 0.60
04/12/2017 13.05 1.07 1.39 35.8 0.47 48 0.47
04/13/2017 13.04 1.08 1.36 36.3 0.43 41 0.43
04/14/2017 13.05 1.08 1.39 36.3 0.48 50 0.48
04/15/2017 13.05 1.09 1.38 36.6 0.56 62 0.56
04/16/2017 13.02 1.10 1.41 37.0 0.59 68 0.59
04/17/2017 13.01 1.10 1.42 37.4 0.63 75 0.63
04/18/2017 13.01 1.11 1.38 37.6 0.66 80 0.66
04/19/2017 13.01 1.10 1.38 37.4 0.77 100 0.77
04/20/2017 13.00 1.11 1.37 37.6 0.84 115 0.84
04/21/2017 13.01 1.10 1.34 37.4 0.71 90 0.71
04/22/2017 13.04 1.09 1.31 36.9 0.46 47 0.46
04/23/2017 13.02 1.10 1.30 37.4 0.37 35 0.37
04/24/2017 13.06 1.09 1.28 36.9 0.47 49 0.47
04/25/2017 13.01 1.08 1.25 36.4 0.56 63 0.56
04/26/2017 13.01 1.10 1.27 37.3 0.41 40 0.41
04/27/2017 13.07 1.11 1.30 37.7 0.28 22 0.28
04/28/2017 13.13 1.09 1.29 36.7 0.18 12 0.18
04/29/2017 13.05 1.08 1.28 36.4 0.30 25 0.30
04/30/2017 13.04 1.10 1.30 37.3 0.25 19 0.25
Average 36.8 62
Maximum 37.7 115
Minimum 35.8 12
Total Volume (AF) 2,192.0 3,674